Time;durP1;ratioP1;P1;durP2;ratioP2;P2;SDS_P1;SDS_P2;PMS_P1;PMS_P2;Temp;Humidity;BMP_temperature;BMP_pressure;BME280_temperature;BME280_humidity;BME280_pressure;Samples;Min_cycle;Max_cycle;Signal;HPM_P1;HPM_P2
2022/01/31 00:00:47;;;;;;;17.33;6.72;;;5.70;99.90;;;;;;5047441;28;20112;-42
2022/01/31 00:03:12;;;;;;;16.40;6.32;;;5.70;99.90;;;;;;5046168;28;20503;-42
2022/01/31 00:05:38;;;;;;;17.88;6.30;;;5.70;99.90;;;;;;5047058;28;20035;-42
2022/01/31 00:08:04;;;;;;;15.30;6.75;;;5.70;99.90;;;;;;5046975;28;20040;-42
2022/01/31 00:10:31;;;;;;;15.27;6.35;;;5.70;99.90;;;;;;5043564;28;20017;-43
2022/01/31 00:13:10;;;;;;;13.27;6.38;;;5.70;99.90;;;;;;5046895;28;20111;-43
2022/01/31 00:15:42;;;;;;;19.70;6.35;;;5.70;99.90;;;;;;5045916;28;20119;-42
2022/01/31 00:18:08;;;;;;;13.38;5.75;;;5.80;99.90;;;;;;5046499;28;20037;-44
2022/01/31 00:20:35;;;;;;;17.98;7.35;;;5.80;99.90;;;;;;5046636;28;20480;-42
2022/01/31 00:23:01;;;;;;;19.60;7.28;;;5.80;99.90;;;;;;5046109;28;20017;-43
2022/01/31 00:25:27;;;;;;;16.33;6.80;;;5.70;99.90;;;;;;5046267;28;20025;-43
2022/01/31 00:27:52;;;;;;;18.00;6.60;;;5.70;99.90;;;;;;5047705;28;20458;-42
2022/01/31 00:30:18;;;;;;;14.50;7.07;;;5.70;99.90;;;;;;5049494;28;20139;-43
2022/01/31 00:32:43;;;;;;;15.52;6.32;;;5.70;99.90;;;;;;5051179;28;20029;-43
2022/01/31 00:35:10;;;;;;;18.10;6.88;;;5.70;99.90;;;;;;5050436;28;20128;-43
2022/01/31 00:37:36;;;;;;;15.88;7.22;;;5.70;99.90;;;;;;5049982;28;20107;-43
2022/01/31 00:40:04;;;;;;;19.42;7.20;;;5.70;99.90;;;;;;5050944;28;20551;-42
2022/01/31 00:42:31;;;;;;;16.05;6.93;;;5.70;99.90;;;;;;5049841;28;20484;-43
2022/01/31 00:45:08;;;;;;;16.02;6.47;;;5.70;99.90;;;;;;5049715;28;20029;-43
2022/01/31 00:47:34;;;;;;;15.00;7.20;;;5.60;99.90;;;;;;5050435;28;20040;-44
2022/01/31 00:50:10;;;;;;;15.02;6.90;;;5.60;99.90;;;;;;5050746;28;20017;-42
2022/01/31 00:52:38;;;;;;;17.80;7.90;;;5.50;99.90;;;;;;5049383;28;20052;-42
2022/01/31 00:55:05;;;;;;;12.63;6.47;;;5.50;99.90;;;;;;5050077;28;20617;-43
2022/01/31 00:57:30;;;;;;;19.23;7.18;;;5.50;99.90;;;;;;5050235;28;20036;-43
2022/01/31 00:59:56;;;;;;;15.82;7.22;;;5.40;99.90;;;;;;5049531;28;20430;-43
2022/01/31 01:02:23;;;;;;;17.48;6.78;;;5.40;99.90;;;;;;5049945;28;20179;-42
2022/01/31 01:04:49;;;;;;;16.33;6.63;;;5.30;99.90;;;;;;5050147;28;20148;-43
2022/01/31 01:07:15;;;;;;;11.52;5.95;;;5.30;99.90;;;;;;5049780;28;20037;-44
2022/01/31 01:09:42;;;;;;;19.27;6.90;;;5.30;99.90;;;;;;5050053;28;20384;-43
2022/01/31 01:12:08;;;;;;;18.00;7.40;;;5.30;99.90;;;;;;5049646;28;20079;-44
2022/01/31 01:14:34;;;;;;;15.95;7.10;;;5.30;99.90;;;;;;5049769;28;20016;-43
2022/01/31 01:16:59;;;;;;;20.58;7.65;;;5.30;99.90;;;;;;5049969;28;20047;-43
2022/01/31 01:19:25;;;;;;;18.45;7.32;;;5.30;99.90;;;;;;5049090;28;20070;-43
2022/01/31 01:21:50;;;;;;;18.98;7.68;;;5.20;99.90;;;;;;5050178;28;20055;-43
2022/01/31 01:24:16;;;;;;;16.77;6.78;;;5.20;99.90;;;;;;5049285;28;20469;-43
2022/01/31 01:26:42;;;;;;;20.23;7.03;;;5.20;99.90;;;;;;5049644;28;20017;-43
2022/01/31 01:29:08;;;;;;;17.23;7.25;;;5.20;99.90;;;;;;5049602;28;20440;-43
2022/01/31 01:31:33;;;;;;;21.08;7.40;;;5.10;99.90;;;;;;5049473;28;20476;-43
2022/01/31 01:33:59;;;;;;;21.10;7.97;;;5.10;99.90;;;;;;5049762;28;20024;-44
2022/01/31 01:36:25;;;;;;;18.65;7.32;;;5.10;99.90;;;;;;5049025;28;20021;-42
2022/01/31 01:38:50;;;;;;;16.45;7.00;;;5.10;99.90;;;;;;5049188;28;20392;-43
2022/01/31 01:41:16;;;;;;;18.35;8.02;;;5.10;99.90;;;;;;5047418;28;20025;-44
2022/01/31 01:43:41;;;;;;;12.85;7.32;;;5.10;99.90;;;;;;5049484;28;20534;-43
2022/01/31 01:46:07;;;;;;;16.60;7.85;;;5.10;99.90;;;;;;5049575;28;20025;-44
2022/01/31 01:48:33;;;;;;;14.68;7.85;;;5.10;99.90;;;;;;5049166;28;20376;-43
2022/01/31 01:50:59;;;;;;;16.13;7.72;;;5.00;99.90;;;;;;5049454;28;20735;-43
2022/01/31 01:53:25;;;;;;;15.35;7.78;;;5.00;99.90;;;;;;5048750;28;20048;-44
2022/01/31 01:55:53;;;;;;;14.77;7.15;;;5.00;99.90;;;;;;5048898;28;20016;-43
2022/01/31 01:58:20;;;;;;;15.15;8.38;;;5.00;99.90;;;;;;5048606;28;20400;-43
2022/01/31 02:00:52;;;;;;;17.20;8.95;;;5.00;99.90;;;;;;5049285;28;20167;-44
2022/01/31 02:03:19;;;;;;;20.48;8.98;;;5.00;99.90;;;;;;5048172;28;20499;-42
2022/01/31 02:05:45;;;;;;;16.83;7.93;;;5.00;99.90;;;;;;5049208;28;20051;-44
2022/01/31 02:08:17;;;;;;;17.75;8.02;;;4.90;99.90;;;;;;5048095;28;20024;-43
2022/01/31 02:10:43;;;;;;;15.30;7.90;;;5.00;99.90;;;;;;5049298;28;20025;-44
2022/01/31 02:13:10;;;;;;;14.70;7.53;;;5.00;99.90;;;;;;5048842;28;20040;-45
2022/01/31 02:15:36;;;;;;;12.10;7.05;;;5.00;99.90;;;;;;5048207;28;20047;-43
2022/01/31 02:18:03;;;;;;;19.85;7.68;;;5.10;99.90;;;;;;5048865;28;20013;-43
2022/01/31 02:20:29;;;;;;;16.40;7.13;;;5.00;99.90;;;;;;5048827;28;20036;-43
2022/01/31 02:22:54;;;;;;;14.88;7.18;;;5.10;99.90;;;;;;5047978;28;20025;-43
2022/01/31 02:25:20;;;;;;;18.48;8.85;;;5.10;99.90;;;;;;5048441;28;20507;-43
2022/01/31 02:27:46;;;;;;;14.02;6.68;;;5.10;99.90;;;;;;5048760;28;20025;-43
2022/01/31 02:30:14;;;;;;;13.48;6.72;;;5.20;99.90;;;;;;5048132;28;20032;-44
2022/01/31 02:32:40;;;;;;;17.58;7.50;;;5.20;99.90;;;;;;5048646;28;20029;-44
2022/01/31 02:35:06;;;;;;;17.25;8.13;;;5.30;99.90;;;;;;5049094;28;20080;-43
2022/01/31 02:37:33;;;;;;;12.98;6.65;;;5.30;99.90;;;;;;5047007;28;20086;-44
2022/01/31 02:39:58;;;;;;;15.48;7.63;;;5.30;99.90;;;;;;5048574;28;20052;-44
2022/01/31 02:42:24;;;;;;;14.20;7.00;;;5.30;99.90;;;;;;5048014;28;20033;-42
2022/01/31 02:44:50;;;;;;;14.32;6.95;;;5.30;99.90;;;;;;5047579;28;20067;-44
2022/01/31 02:47:23;;;;;;;15.07;7.72;;;5.30;99.90;;;;;;5047842;28;20033;-44
2022/01/31 02:49:55;;;;;;;14.75;6.75;;;5.40;99.90;;;;;;5038395;28;20032;-42
2022/01/31 02:52:22;;;;;;;16.25;7.03;;;5.40;99.90;;;;;;5046301;28;20048;-44
2022/01/31 02:54:48;;;;;;;12.35;6.80;;;5.40;99.90;;;;;;5048153;28;20380;-44
2022/01/31 02:57:13;;;;;;;12.52;6.97;;;5.50;99.90;;;;;;5047651;28;20032;-42
2022/01/31 02:59:39;;;;;;;12.52;5.90;;;5.50;99.90;;;;;;5048227;28;20040;-43
2022/01/31 03:02:06;;;;;;;12.05;5.78;;;5.50;99.90;;;;;;5048489;28;20529;-43
2022/01/31 03:04:31;;;;;;;12.13;5.93;;;5.60;99.90;;;;;;5046455;28;20065;-43
2022/01/31 03:06:57;;;;;;;12.57;5.75;;;5.60;99.90;;;;;;5048371;28;20045;-43
2022/01/31 03:09:23;;;;;;;10.07;5.43;;;5.70;99.90;;;;;;5047554;28;20685;-44
2022/01/31 03:11:48;;;;;;;13.82;5.53;;;5.70;99.90;;;;;;5047334;28;20079;-43
2022/01/31 03:14:18;;;;;;;15.77;6.00;;;5.80;99.90;;;;;;5047394;28;20110;-43
2022/01/31 03:16:47;;;;;;;12.07;6.50;;;5.80;99.90;;;;;;5048170;28;20036;-43
2022/01/31 03:19:14;;;;;;;11.75;6.13;;;5.80;99.90;;;;;;5046543;28;20404;-44
2022/01/31 03:21:40;;;;;;;12.20;5.30;;;5.90;99.90;;;;;;5047782;28;20031;-43
2022/01/31 03:24:06;;;;;;;14.63;5.22;;;5.90;99.90;;;;;;5047883;28;20238;-43
2022/01/31 03:26:32;;;;;;;11.50;4.90;;;6.00;99.90;;;;;;5046580;28;20021;-42
2022/01/31 03:28:58;;;;;;;8.98;4.20;;;6.00;99.90;;;;;;5047606;28;20392;-42
2022/01/31 03:31:24;;;;;;;11.55;3.88;;;6.00;99.90;;;;;;5047299;28;20028;-43
2022/01/31 03:33:52;;;;;;;11.27;4.15;;;6.10;99.90;;;;;;5046907;28;20024;-44
2022/01/31 03:36:18;;;;;;;14.10;4.15;;;6.10;99.90;;;;;;5035647;28;20025;-43
2022/01/31 03:38:44;;;;;;;10.60;3.78;;;6.20;99.90;;;;;;5047576;28;20097;-42
2022/01/31 03:41:11;;;;;;;11.10;3.88;;;6.20;99.90;;;;;;5046760;28;20831;-44
2022/01/31 03:43:36;;;;;;;11.23;3.70;;;6.20;99.90;;;;;;5047374;28;20130;-43
2022/01/31 03:46:02;;;;;;;14.20;4.38;;;6.20;99.90;;;;;;5046608;28;20532;-43
2022/01/31 03:48:29;;;;;;;10.60;3.40;;;6.30;99.90;;;;;;5046163;28;20021;-43
2022/01/31 03:50:56;;;;;;;13.50;3.03;;;6.30;99.90;;;;;;5047286;28;20107;-44
2022/01/31 03:53:21;;;;;;;13.95;3.70;;;6.30;99.90;;;;;;5046768;28;20045;-43
2022/01/31 03:55:47;;;;;;;14.10;3.13;;;6.40;99.90;;;;;;5046950;28;20499;-44
2022/01/31 03:58:12;;;;;;;12.85;3.15;;;6.40;99.90;;;;;;5046815;28;20029;-43
2022/01/31 04:00:38;;;;;;;12.85;2.85;;;6.40;99.90;;;;;;5046303;28;20033;-43
2022/01/31 04:03:04;;;;;;;9.35;2.60;;;6.40;99.90;;;;;;5047092;28;20055;-43
2022/01/31 04:05:31;;;;;;;14.07;3.20;;;6.40;99.90;;;;;;5046273;28;20480;-43
2022/01/31 04:07:57;;;;;;;12.63;3.00;;;6.50;99.90;;;;;;5047100;28;20071;-43
2022/01/31 04:10:25;;;;;;;12.88;2.75;;;6.50;99.90;;;;;;5046438;28;20106;-45
2022/01/31 04:12:50;;;;;;;16.92;3.25;;;6.50;99.90;;;;;;5047103;28;20025;-42
2022/01/31 04:15:16;;;;;;;13.38;2.63;;;6.50;99.90;;;;;;5045630;28;20017;-43
2022/01/31 04:17:41;;;;;;;15.95;3.28;;;6.50;99.90;;;;;;5047482;28;20017;-44
2022/01/31 04:20:08;;;;;;;10.02;2.63;;;6.50;99.90;;;;;;5047009;28;20647;-43
2022/01/31 04:22:36;;;;;;;9.30;2.63;;;6.50;99.90;;;;;;5046096;28;20476;-42
2022/01/31 04:25:05;;;;;;;11.13;2.40;;;6.50;99.90;;;;;;5047164;28;20396;-42
2022/01/31 04:27:43;;;;;;;13.07;2.72;;;6.50;99.90;;;;;;5046574;28;20017;-43
2022/01/31 04:30:12;;;;;;;12.45;2.58;;;6.60;99.90;;;;;;5046628;28;20099;-44
2022/01/31 04:32:37;;;;;;;15.68;3.03;;;6.60;99.90;;;;;;5045315;28;20141;-43
2022/01/31 04:35:03;;;;;;;15.38;3.10;;;6.60;99.90;;;;;;5046964;28;20447;-44
2022/01/31 04:37:29;;;;;;;12.20;2.95;;;6.50;99.90;;;;;;5045722;28;20040;-44
2022/01/31 04:39:54;;;;;;;17.90;3.42;;;6.60;99.90;;;;;;5046956;28;20048;-42
2022/01/31 04:42:20;;;;;;;14.35;3.00;;;6.60;99.90;;;;;;5046191;28;20387;-43
2022/01/31 04:44:45;;;;;;;11.00;2.65;;;6.60;99.90;;;;;;5046494;28;20032;-43
2022/01/31 04:47:11;;;;;;;16.92;3.95;;;6.60;99.90;;;;;;5046297;28;20519;-44
2022/01/31 04:49:36;;;;;;;13.38;2.95;;;6.60;99.90;;;;;;5046730;28;20040;-43
2022/01/31 04:52:03;;;;;;;13.93;2.88;;;6.50;99.90;;;;;;5045894;28;20071;-42
2022/01/31 04:54:28;;;;;;;20.63;3.60;;;6.60;99.90;;;;;;5046058;28;20040;-43
2022/01/31 04:56:57;;;;;;;13.43;2.83;;;6.60;99.90;;;;;;5045581;28;20037;-43
2022/01/31 04:59:23;;;;;;;15.85;3.05;;;6.60;99.90;;;;;;5046323;28;20037;-42
2022/01/31 05:01:49;;;;;;;12.98;3.10;;;6.60;99.90;;;;;;5046773;28;20021;-43
2022/01/31 05:04:15;;;;;;;13.35;2.78;;;6.60;99.90;;;;;;5045592;28;20115;-43
2022/01/31 05:06:43;;;;;;;11.45;3.40;;;6.50;99.90;;;;;;5046236;28;20473;-43
2022/01/31 05:09:10;;;;;;;12.55;2.60;;;6.50;99.90;;;;;;5046686;28;20159;-43
2022/01/31 05:11:36;;;;;;;14.77;2.85;;;6.50;99.90;;;;;;5045565;28;20032;-43
2022/01/31 05:14:02;;;;;;;10.93;2.97;;;6.50;99.90;;;;;;5047871;28;20465;-44
2022/01/31 05:16:28;;;;;;;18.67;3.38;;;6.50;99.90;;;;;;5049996;28;20052;-42
2022/01/31 05:18:53;;;;;;;20.70;3.33;;;6.50;99.90;;;;;;5048828;28;20041;-43
2022/01/31 05:21:19;;;;;;;17.00;3.47;;;6.50;99.90;;;;;;5049987;28;20036;-43
2022/01/31 05:23:47;;;;;;;13.93;2.83;;;6.50;99.90;;;;;;5049968;28;20033;-43
2022/01/31 05:26:13;;;;;;;18.08;3.05;;;6.40;99.90;;;;;;5049017;28;20074;-43
2022/01/31 05:28:38;;;;;;;14.90;3.22;;;6.40;99.90;;;;;;5050168;28;20020;-43
2022/01/31 05:31:05;;;;;;;11.27;2.33;;;6.40;99.90;;;;;;5049460;28;20029;-43
2022/01/31 05:33:30;;;;;;;10.75;2.70;;;6.40;99.90;;;;;;5048473;28;20057;-43
2022/01/31 05:35:56;;;;;;;9.88;2.35;;;6.40;99.90;;;;;;5050276;28;20199;-43
2022/01/31 05:38:22;;;;;;;14.15;3.03;;;6.40;99.90;;;;;;5048924;28;20436;-43
2022/01/31 05:40:48;;;;;;;14.52;2.95;;;6.40;99.90;;;;;;5049194;28;20489;-44
2022/01/31 05:43:13;;;;;;;18.20;2.92;;;6.30;99.90;;;;;;5049301;28;20074;-43
2022/01/31 05:45:39;;;;;;;11.43;2.22;;;6.30;99.90;;;;;;5049443;28;20025;-43
2022/01/31 05:48:04;;;;;;;6.60;1.58;;;6.30;99.90;;;;;;5049048;28;20017;-44
2022/01/31 05:50:30;;;;;;;9.02;2.13;;;6.20;99.90;;;;;;5049669;28;20055;-42
2022/01/31 05:52:55;;;;;;;10.02;1.33;;;6.10;99.90;;;;;;5049280;28;20048;-43
2022/01/31 05:55:21;;;;;;;7.10;1.45;;;5.90;99.90;;;;;;5048579;28;20017;-43
2022/01/31 05:57:47;;;;;;;10.27;1.70;;;5.80;99.90;;;;;;5049631;28;20029;-43
2022/01/31 06:00:14;;;;;;;8.82;1.60;;;5.80;99.90;;;;;;5048331;28;20033;-43
2022/01/31 06:02:39;;;;;;;8.82;2.53;;;5.70;99.90;;;;;;5049571;28;20056;-43
2022/01/31 06:05:05;;;;;;;7.57;1.73;;;5.70;99.90;;;;;;5049535;28;20061;-44
2022/01/31 06:07:31;;;;;;;9.07;2.92;;;5.60;99.90;;;;;;5048254;28;20017;-43
2022/01/31 06:09:57;;;;;;;7.00;1.80;;;5.60;99.90;;;;;;5049214;28;20032;-42
2022/01/31 06:12:23;;;;;;;7.05;1.50;;;5.60;99.90;;;;;;5048749;28;20025;-43
2022/01/31 06:14:48;;;;;;;9.10;1.98;;;5.50;99.90;;;;;;5048343;28;20112;-43
2022/01/31 06:17:14;;;;;;;7.88;2.00;;;5.50;99.90;;;;;;5048520;28;20027;-44
2022/01/31 06:19:39;;;;;;;12.52;2.38;;;5.50;99.90;;;;;;5049156;28;20067;-43
2022/01/31 06:22:05;;;;;;;9.52;1.83;;;5.50;99.90;;;;;;5048563;28;20672;-44
2022/01/31 06:24:30;;;;;;;9.77;2.20;;;5.50;99.90;;;;;;5048287;28;20590;-43
2022/01/31 06:26:58;;;;;;;12.55;3.33;;;5.50;99.90;;;;;;5048500;28;20484;-43
2022/01/31 06:29:24;;;;;;;8.88;2.20;;;5.50;99.90;;;;;;5047331;28;20055;-43
2022/01/31 06:31:49;;;;;;;17.63;2.38;;;5.50;99.90;;;;;;5048906;28;20510;-42
2022/01/31 06:34:18;;;;;;;10.68;2.35;;;5.50;99.90;;;;;;5048770;28;20116;-44
2022/01/31 06:36:43;;;;;;;14.63;2.55;;;5.50;99.90;;;;;;5048275;28;20116;-44
2022/01/31 06:39:09;;;;;;;14.57;3.55;;;5.50;99.90;;;;;;5048463;28;20116;-42
2022/01/31 06:41:35;;;;;;;12.82;2.97;;;5.50;99.90;;;;;;5047984;28;20029;-42
2022/01/31 06:44:00;;;;;;;17.40;2.72;;;5.50;99.90;;;;;;5048426;28;20060;-42
2022/01/31 06:46:26;;;;;;;32.55;4.72;;;5.50;99.90;;;;;;5048066;28;20159;-44
2022/01/31 06:48:52;;;;;;;18.40;3.58;;;5.60;99.90;;;;;;5048700;28;20025;-42
2022/01/31 06:51:18;;;;;;;14.00;2.70;;;5.60;99.90;;;;;;5047343;28;20029;-43
2022/01/31 06:53:47;;;;;;;14.63;2.70;;;5.60;99.90;;;;;;5045620;28;20516;-43
2022/01/31 06:56:13;;;;;;;15.57;3.63;;;5.70;99.90;;;;;;5047727;28;20035;-43
2022/01/31 06:58:39;;;;;;;14.82;2.63;;;5.70;99.90;;;;;;5044884;28;20116;-43
2022/01/31 07:01:04;;;;;;;16.92;3.35;;;5.70;99.90;;;;;;5047021;28;20083;-43
2022/01/31 07:03:30;;;;;;;13.95;3.03;;;5.70;99.90;;;;;;5046104;28;20051;-43
2022/01/31 07:05:55;;;;;;;15.45;2.60;;;5.70;99.90;;;;;;5047721;28;20108;-44
2022/01/31 07:08:22;;;;;;;12.52;2.45;;;5.70;99.90;;;;;;5046390;28;20656;-43
2022/01/31 07:10:52;;;;;;;14.63;3.22;;;5.70;99.90;;;;;;5046394;28;20448;-45
2022/01/31 07:13:36;;;;;;;16.60;2.97;;;5.70;99.90;;;;;;5046578;28;20128;-45
2022/01/31 07:16:03;;;;;;;17.15;3.00;;;5.70;99.90;;;;;;5046847;28;20037;-43
2022/01/31 07:18:33;;;;;;;9.07;2.28;;;5.70;99.90;;;;;;5045841;28;20017;-43
2022/01/31 07:20:59;;;;;;;14.52;2.50;;;5.70;99.90;;;;;;5046085;28;20036;-43
2022/01/31 07:23:38;;;;;;;17.23;2.92;;;5.70;99.90;;;;;;5046189;28;20024;-44
2022/01/31 07:26:04;;;;;;;14.45;2.78;;;5.70;99.90;;;;;;5046134;28;20456;-43
2022/01/31 07:28:29;;;;;;;13.35;2.15;;;5.70;99.90;;;;;;5046153;28;20017;-45
2022/01/31 07:30:57;;;;;;;13.90;2.67;;;5.70;99.90;;;;;;5046964;28;20029;-44
2022/01/31 07:33:23;;;;;;;12.65;2.30;;;5.80;99.90;;;;;;5046419;28;20096;-43
2022/01/31 07:35:50;;;;;;;12.35;2.30;;;5.70;99.90;;;;;;5047837;28;20522;-42
2022/01/31 07:38:16;;;;;;;15.52;2.20;;;5.70;99.90;;;;;;5046737;28;20029;-43
2022/01/31 07:40:43;;;;;;;15.40;2.97;;;5.70;99.90;;;;;;5047062;28;20060;-43
2022/01/31 07:43:08;;;;;;;12.43;2.13;;;5.70;99.90;;;;;;5046848;28;20028;-41
2022/01/31 07:45:34;;;;;;;12.50;2.30;;;5.70;99.90;;;;;;5047893;28;20082;-44
2022/01/31 07:48:00;;;;;;;15.15;2.38;;;5.70;99.90;;;;;;5050131;28;20075;-44
2022/01/31 07:50:25;;;;;;;16.05;2.70;;;5.70;99.90;;;;;;5046767;28;20595;-43
2022/01/31 07:52:51;;;;;;;17.92;3.20;;;5.70;99.90;;;;;;5053552;28;20049;-43
2022/01/31 07:55:17;;;;;;;11.43;2.67;;;5.70;99.90;;;;;;5047200;28;20103;-43
2022/01/31 07:57:45;;;;;;;14.15;2.33;;;5.70;99.90;;;;;;5047149;28;20048;-43
2022/01/31 08:00:12;;;;;;;18.27;3.15;;;5.70;99.90;;;;;;5047148;28;20041;-43
2022/01/31 08:02:38;;;;;;;20.42;3.10;;;5.70;99.90;;;;;;5049044;28;20052;-43
2022/01/31 08:05:05;;;;;;;14.98;3.00;;;5.70;99.90;;;;;;5046742;28;20060;-43
2022/01/31 08:07:31;;;;;;;16.58;2.80;;;5.70;99.90;;;;;;5046226;28;20035;-44
2022/01/31 08:09:56;;;;;;;19.73;4.25;;;5.70;99.90;;;;;;5046910;28;20127;-43
2022/01/31 08:12:23;;;;;;;16.90;3.00;;;5.70;99.90;;;;;;5046309;28;20475;-43
2022/01/31 08:14:49;;;;;;;22.83;3.50;;;5.70;99.90;;;;;;5046127;28;20064;-43
2022/01/31 08:17:15;;;;;;;19.80;3.58;;;5.70;99.90;;;;;;5046361;28;20057;-43
2022/01/31 08:19:41;;;;;;;19.67;3.97;;;5.70;99.90;;;;;;5045956;28;20035;-43
2022/01/31 08:22:06;;;;;;;20.65;3.28;;;5.80;99.90;;;;;;5045176;28;20060;-44
2022/01/31 08:24:32;;;;;;;20.77;4.75;;;5.70;99.90;;;;;;5045802;28;20028;-44
2022/01/31 08:26:58;;;;;;;23.52;4.25;;;5.80;99.90;;;;;;5045693;28;20059;-42
2022/01/31 08:29:31;;;;;;;21.27;3.45;;;5.80;99.90;;;;;;5045204;28;20052;-44
2022/01/31 08:31:59;;;;;;;18.63;3.63;;;5.80;99.90;;;;;;5049543;28;20085;-43
2022/01/31 08:35:47;;;;;;;18.58;3.22;;;5.80;99.90;;;;;;5046736;28;20032;-43
2022/01/31 08:37:13;;;;;;;26.02;3.15;;;5.80;99.90;;;;;;5045414;28;20123;-44
2022/01/31 08:39:39;;;;;;;17.52;3.15;;;5.80;99.90;;;;;;5053118;28;20488;-43
2022/01/31 08:42:05;;;;;;;21.00;3.30;;;5.80;99.90;;;;;;5045630;28;20029;-43
2022/01/31 08:44:30;;;;;;;17.20;3.45;;;5.80;99.90;;;;;;5044333;28;20037;-42
2022/01/31 08:46:56;;;;;;;13.63;3.35;;;5.80;99.90;;;;;;5045665;28;20183;-43
2022/01/31 08:49:21;;;;;;;24.48;4.22;;;5.80;99.90;;;;;;5045947;28;20025;-43
2022/01/31 08:51:47;;;;;;;15.80;2.67;;;5.80;99.90;;;;;;5049815;28;20025;-42
2022/01/31 08:54:14;;;;;;;15.73;3.13;;;5.80;99.90;;;;;;5049645;28;20040;-44
2022/01/31 08:56:45;;;;;;;18.05;3.83;;;5.70;99.90;;;;;;5049544;28;20024;-43
2022/01/31 08:59:15;;;;;;;17.15;2.78;;;5.80;99.90;;;;;;5049380;28;20444;-43
2022/01/31 09:01:43;;;;;;;18.27;2.83;;;5.80;99.90;;;;;;5046720;28;20041;-43
2022/01/31 09:04:10;;;;;;;17.20;3.63;;;5.80;99.90;;;;;;5050567;28;20448;-42
2022/01/31 09:06:36;;;;;;;21.65;3.47;;;5.80;99.90;;;;;;5052843;28;20025;-43
2022/01/31 09:09:16;;;;;;;18.77;3.22;;;5.80;99.90;;;;;;5057721;28;20464;-43
2022/01/31 09:11:42;;;;;;;16.90;3.22;;;5.80;99.90;;;;;;5049930;28;20047;-43
2022/01/31 09:14:08;;;;;;;19.13;3.35;;;5.90;99.90;;;;;;5050206;28;20021;-42
2022/01/31 09:16:33;;;;;;;17.75;3.05;;;5.90;99.90;;;;;;5058286;28;20020;-44
2022/01/31 09:18:59;;;;;;;18.98;3.67;;;5.80;99.90;;;;;;5056983;28;20032;-44
2022/01/31 09:21:24;;;;;;;19.55;3.28;;;5.80;99.90;;;;;;5056397;28;20032;-44
2022/01/31 09:23:52;;;;;;;21.10;3.40;;;5.80;99.90;;;;;;5063454;28;20025;-44
2022/01/31 09:26:22;;;;;;;22.42;4.60;;;5.70;99.90;;;;;;5057610;28;20029;-45
2022/01/31 09:28:50;;;;;;;24.23;4.28;;;5.70;99.90;;;;;;5050984;28;20033;-43
2022/01/31 09:31:15;;;;;;;22.17;3.55;;;5.70;99.90;;;;;;5047210;28;20044;-44
2022/01/31 09:33:41;;;;;;;27.05;4.25;;;5.70;99.90;;;;;;5049554;28;20479;-43
2022/01/31 09:36:06;;;;;;;20.20;4.10;;;5.70;99.90;;;;;;5049495;28;20500;-44
2022/01/31 09:38:32;;;;;;;26.20;4.93;;;5.70;99.90;;;;;;5048541;28;20031;-44
2022/01/31 09:40:57;;;;;;;27.65;4.75;;;5.70;99.90;;;;;;5049119;28;20377;-43
2022/01/31 09:43:51;;;;;;;27.35;4.78;;;5.70;99.90;;;;;;5048786;28;20021;-44
2022/01/31 09:48:44;;;;;;;22.55;4.35;;;5.80;99.90;;;;;;5048482;28;20486;-45
2022/01/31 09:51:11;;;;;;;28.35;4.93;;;5.80;99.90;;;;;;5047809;28;20063;-44
2022/01/31 09:53:48;;;;;;;25.73;5.47;;;5.80;99.90;;;;;;5047888;28;20063;-43
2022/01/31 09:56:23;;;;;;;15.48;3.72;;;5.80;99.90;;;;;;5049267;28;20036;-42
2022/01/31 09:58:52;;;;;;;25.38;4.97;;;5.80;99.90;;;;;;5047346;28;20396;-44
2022/01/31 10:01:21;;;;;;;27.90;5.18;;;5.70;99.90;;;;;;5046897;28;20572;-43
2022/01/31 10:04:18;;;;;;;31.38;4.60;;;5.70;99.90;;;;;;5048321;28;20029;-44
2022/01/31 10:06:52;;;;;;;24.95;4.70;;;5.70;99.90;;;;;;5062497;28;20044;-44
2022/01/31 10:09:26;;;;;;;28.90;5.50;;;5.70;99.90;;;;;;5048433;28;20136;-44
2022/01/31 10:12:25;;;;;;;29.67;6.15;;;5.70;99.90;;;;;;5048198;28;20045;-43
2022/01/31 10:17:38;;;;;;;33.13;5.57;;;5.80;99.90;;;;;;5058740;28;20075;-44
2022/01/31 10:20:25;;;;;;;32.17;6.38;;;5.70;99.90;;;;;;5048540;28;20068;-42
2022/01/31 10:22:54;;;;;;;34.35;7.07;;;5.80;99.90;;;;;;5048302;28;20025;-43
2022/01/31 10:25:21;;;;;;;27.92;5.53;;;5.70;99.90;;;;;;5048617;28;20043;-44
2022/01/31 10:27:50;;;;;;;27.42;5.30;;;5.70;99.90;;;;;;5048051;28;20029;-44
2022/01/31 10:30:19;;;;;;;28.80;6.00;;;5.80;99.90;;;;;;5047734;28;20025;-46
2022/01/31 10:32:48;;;;;;;30.35;5.13;;;5.80;99.90;;;;;;5048052;28;20464;-44
2022/01/31 10:35:22;;;;;;;32.95;6.60;;;5.80;99.90;;;;;;5046949;28;20029;-44
2022/01/31 10:37:50;;;;;;;33.13;6.25;;;5.80;99.90;;;;;;5048654;28;20104;-43
2022/01/31 10:54:35;;;;;;;40.03;6.07;;;5.90;99.90;;;;;;5059170;28;20165;-45
2022/01/31 10:57:02;;;;;;;36.85;6.45;;;6.00;99.90;;;;;;5057973;28;20029;-43
2022/01/31 10:59:31;;;;;;;32.25;4.95;;;6.00;99.90;;;;;;5053948;28;20086;-44
2022/01/31 11:01:58;;;;;;;30.08;6.82;;;6.00;99.90;;;;;;5050836;28;20116;-44
2022/01/31 11:04:28;;;;;;;31.50;5.63;;;6.00;99.90;;;;;;5047954;28;20459;-44
2022/01/31 11:06:59;;;;;;;29.95;5.18;;;6.00;99.90;;;;;;5051973;28;20041;-44
2022/01/31 11:09:25;;;;;;;31.90;5.20;;;6.00;99.90;;;;;;5056716;28;20018;-44
2022/01/31 11:11:51;;;;;;;26.30;4.90;;;6.00;99.90;;;;;;5046408;28;20059;-43
2022/01/31 11:14:20;;;;;;;24.25;4.78;;;6.00;99.90;;;;;;5048273;28;20025;-43
2022/01/31 11:16:47;;;;;;;23.70;5.28;;;6.00;99.90;;;;;;5046435;28;20024;-44
2022/01/31 11:19:16;;;;;;;29.08;4.35;;;6.00;99.90;;;;;;5047355;28;20095;-44
2022/01/31 11:21:45;;;;;;;24.25;4.38;;;6.10;99.90;;;;;;5047596;28;20021;-44
2022/01/31 11:24:18;;;;;;;21.58;4.53;;;6.10;99.90;;;;;;5047099;28;20078;-44
2022/01/31 11:26:49;;;;;;;23.90;4.22;;;6.10;99.90;;;;;;5047553;28;20025;-43
2022/01/31 11:29:15;;;;;;;26.85;4.38;;;6.10;99.90;;;;;;5047026;28;20160;-44
2022/01/31 11:31:42;;;;;;;22.17;4.78;;;6.00;99.90;;;;;;5046927;28;20103;-44
2022/01/31 11:34:08;;;;;;;21.25;4.30;;;6.00;99.90;;;;;;5046935;28;20537;-45
2022/01/31 11:36:36;;;;;;;29.85;4.55;;;6.00;99.90;;;;;;5046969;28;20048;-44
2022/01/31 11:39:06;;;;;;;23.02;4.32;;;6.10;99.90;;;;;;5046269;28;20029;-44
2022/01/31 11:41:33;;;;;;;26.40;5.40;;;6.00;99.90;;;;;;5046242;28;20013;-43
2022/01/31 11:44:11;;;;;;;22.27;4.35;;;6.00;99.90;;;;;;5047055;28;20025;-44
2022/01/31 11:46:40;;;;;;;27.42;4.57;;;6.00;99.90;;;;;;5043674;28;20044;-44
2022/01/31 11:49:11;;;;;;;26.50;4.72;;;6.10;99.90;;;;;;5043745;28;20126;-44
2022/01/31 11:51:49;;;;;;;25.10;4.80;;;6.10;99.90;;;;;;5044761;28;20028;-44
2022/01/31 11:54:22;;;;;;;29.35;5.40;;;6.10;99.90;;;;;;5044136;28;20044;-43
2022/01/31 11:56:51;;;;;;;21.80;4.18;;;6.20;99.90;;;;;;5045195;28;20050;-44
2022/01/31 11:59:22;;;;;;;23.77;5.10;;;6.10;99.90;;;;;;5045318;28;20063;-43
2022/01/31 12:01:52;;;;;;;25.67;4.40;;;6.20;99.90;;;;;;5046800;28;20013;-44
2022/01/31 12:04:23;;;;;;;27.33;5.60;;;6.10;99.90;;;;;;5046365;28;20056;-44
2022/01/31 12:06:48;;;;;;;21.88;4.18;;;6.10;99.90;;;;;;5046817;28;20036;-44
2022/01/31 12:09:17;;;;;;;26.48;4.97;;;6.10;99.90;;;;;;5045644;28;20029;-44
2022/01/31 12:12:02;;;;;;;25.27;5.43;;;6.10;99.90;;;;;;5046623;28;20044;-43
2022/01/31 12:14:44;;;;;;;22.35;4.78;;;6.00;99.90;;;;;;5045027;28;20036;-43
2022/01/31 12:17:57;;;;;;;27.05;5.28;;;6.10;99.90;;;;;;5046838;28;20075;-45
2022/01/31 12:23:54;;;;;;;26.73;5.22;;;6.10;99.90;;;;;;5046089;28;20082;-44
2022/01/31 12:26:31;;;;;;;21.73;4.88;;;6.20;99.90;;;;;;5046173;28;20025;-43
2022/01/31 12:29:05;;;;;;;23.30;4.50;;;6.20;99.90;;;;;;5046387;28;20125;-44
2022/01/31 12:31:39;;;;;;;20.20;4.18;;;6.10;99.90;;;;;;5045993;28;20032;-44
2022/01/31 12:34:34;;;;;;;19.67;5.05;;;6.20;99.90;;;;;;5046093;28;20542;-44
2022/01/31 12:37:14;;;;;;;24.77;5.47;;;6.20;99.90;;;;;;5045608;28;20036;-44
2022/01/31 12:39:45;;;;;;;28.52;4.93;;;6.30;99.90;;;;;;5046638;28;20032;-44
2022/01/31 12:45:22;;;;;;;21.52;4.03;;;6.30;99.90;;;;;;5046637;28;20044;-45
2022/01/31 12:48:13;;;;;;;20.85;4.43;;;6.20;99.90;;;;;;5046114;28;20025;-44
2022/01/31 12:50:50;;;;;;;20.30;4.32;;;6.20;99.90;;;;;;5046314;28;20131;-44
2022/01/31 12:53:22;;;;;;;23.63;4.55;;;6.20;99.90;;;;;;5045659;28;20045;-44
2022/01/31 12:55:58;;;;;;;25.70;4.50;;;6.20;99.90;;;;;;5045791;28;20048;-43
2022/01/31 12:58:32;;;;;;;25.73;5.45;;;6.20;99.90;;;;;;5044787;28;20614;-45
2022/01/31 13:00:58;;;;;;;24.30;4.28;;;6.20;99.90;;;;;;5046308;28;20037;-43
2022/01/31 13:03:34;;;;;;;20.02;4.38;;;6.20;99.90;;;;;;5045057;28;20025;-43
2022/01/31 13:06:00;;;;;;;26.70;4.75;;;6.20;99.90;;;;;;5046320;28;20021;-44
2022/01/31 13:08:25;;;;;;;26.85;4.95;;;6.20;99.90;;;;;;5046181;28;20029;-44
2022/01/31 13:10:52;;;;;;;31.30;4.40;;;6.20;99.90;;;;;;5045641;28;20059;-45
2022/01/31 13:13:39;;;;;;;32.67;6.38;;;6.20;99.90;;;;;;5045387;28;20099;-45
2022/01/31 13:16:10;;;;;;;27.33;5.18;;;6.20;99.90;;;;;;5046368;28;20021;-44
2022/01/31 13:18:35;;;;;;;27.08;4.80;;;6.30;99.90;;;;;;5046086;28;20021;-45